createdAt,value
2018-07-23T05:24:32.899Z,51.88
2018-07-23T05:25:35.640Z,51.69
2018-07-23T05:26:38.309Z,51.39
2018-07-23T05:27:41.414Z,52.28
2018-07-23T05:28:44.132Z,51.85
2018-07-23T05:29:50.431Z,51.75
2018-07-23T05:32:01.332Z,52.05
2018-07-23T05:33:04.033Z,52.13
2018-07-23T05:34:06.950Z,51.75
2018-07-23T05:35:09.764Z,52.81
2018-07-23T05:36:13.785Z,52.69
2018-07-23T05:37:16.545Z,52.97
2018-07-23T05:40:37.972Z,52.29
2018-07-23T05:41:44.533Z,52.02
2018-07-23T05:43:13.250Z,52.16
2018-07-23T05:44:16.388Z,51.68
2018-07-23T05:45:20.453Z,50.94
2018-07-23T05:46:23.094Z,51.40
2018-07-23T05:47:25.865Z,52.21
2018-07-23T05:48:33.085Z,52.25
2018-07-23T05:49:36.864Z,52.08
2018-07-23T05:50:41.202Z,51.12
2018-07-23T05:51:44.065Z,51.61
2018-07-23T05:52:48.281Z,50.87
2018-07-23T05:53:52.139Z,51.10
2018-07-23T05:54:54.912Z,51.15
2018-07-23T05:55:57.615Z,50.67
2018-07-23T05:57:00.321Z,50.04
2018-07-23T05:58:04.391Z,50.41
2018-07-23T06:00:13.968Z,50.33
2018-07-23T06:01:16.590Z,50.64
2018-07-23T06:02:19.360Z,50.67
2018-07-23T06:05:42.672Z,51.79
2018-07-23T06:06:47.392Z,51.94
2018-07-23T06:07:53.287Z,52.18
2018-07-23T06:08:59.339Z,51.32
2018-07-23T06:10:06.405Z,51.49
2018-07-23T06:11:09.801Z,51.06
2018-07-23T06:12:12.424Z,50.85
2018-07-23T06:13:15.658Z,51.35
2018-07-23T06:14:20.914Z,51.37
2018-07-23T06:15:23.577Z,51.76
2018-07-23T06:21:12.481Z,51.80
2018-07-23T06:22:20.207Z,51.69
2018-07-23T06:23:23.471Z,50.92
2018-07-23T10:24:39.435Z,53.08
2018-07-23T10:25:42.127Z,52.46
2018-07-23T10:26:44.837Z,52.45
2018-07-23T10:27:52.835Z,51.79
2018-07-23T10:28:56.357Z,50.90
2018-07-23T10:29:59.434Z,50.57
2018-07-23T10:31:02.612Z,51.23
2018-07-23T10:32:05.125Z,51.06
2018-07-23T10:33:08.662Z,50.60
2018-07-23T10:34:11.175Z,50.05
2018-07-23T10:35:15.116Z,50.27
2018-07-23T10:36:18.014Z,50.07
2018-07-23T10:37:21.371Z,50.50
2018-07-23T10:38:23.896Z,50.02
2018-07-23T10:39:26.427Z,50.34
2018-07-23T10:40:30.666Z,50.01
2018-07-23T10:41:33.242Z,50.04
2018-07-23T10:42:36.381Z,50.32
2018-07-23T10:43:38.960Z,50.91
2018-07-23T10:44:45.782Z,50.33
2018-07-23T10:45:48.307Z,50.83
2018-07-23T10:46:51.460Z,50.08
2018-07-23T19:08:35.284Z,51.32
2018-07-23T19:09:38.556Z,51.51
2018-07-23T19:10:41.424Z,51.13
2018-07-23T19:11:44.406Z,50.17
2018-07-23T19:12:50.016Z,50.47
2018-07-23T19:13:54.676Z,49.21
2018-07-23T19:14:58.336Z,49.86
2018-07-23T19:16:05.344Z,49.52
2018-07-23T19:17:08.194Z,49.37
2018-07-23T19:18:10.674Z,48.64
2018-07-23T19:19:13.153Z,49.48
2018-07-23T20:21:11.370Z,51.58
2018-07-23T20:22:14.020Z,50.22
2018-07-23T20:23:18.795Z,50.41
2018-07-23T20:24:22.385Z,49.51
2018-07-23T20:25:26.643Z,49.64
2018-07-23T20:26:29.556Z,49.63
2018-07-23T20:27:32.031Z,49.08
2018-07-23T20:28:34.498Z,49.82
2018-07-23T20:29:38.143Z,49.66
2018-07-23T20:30:41.379Z,49.08
2018-07-23T20:31:43.905Z,49.16
2018-07-23T20:32:48.491Z,49.10
2018-07-23T20:33:51.452Z,49.86
2018-07-23T20:34:56.477Z,49.86
2018-07-23T20:36:03.151Z,49.28
2018-07-23T20:37:05.892Z,49.97
2018-07-23T20:38:09.253Z,49.18
2018-07-23T20:39:12.542Z,49.93
2018-07-23T20:40:16.985Z,50.05
2018-07-23T20:41:19.764Z,49.46
2018-07-23T20:42:22.250Z,49.27
2018-07-23T20:43:24.812Z,50.13
2018-07-23T20:44:28.199Z,49.97
2018-07-23T20:45:31.195Z,49.35
2018-07-23T20:46:33.637Z,49.90
2018-07-23T20:47:36.302Z,49.11
2018-07-23T20:48:38.851Z,49.69
2018-07-23T20:49:41.974Z,48.88
2018-07-23T20:50:44.545Z,49.67
2018-07-23T20:51:47.900Z,49.12
2018-07-23T20:52:51.308Z,48.84
2018-07-23T20:53:54.951Z,48.71
2018-07-23T20:54:59.884Z,49.20
2018-07-23T20:56:03.001Z,49.67
2018-07-23T20:57:05.692Z,48.86
2018-07-23T20:58:08.677Z,49.09
2018-07-23T20:59:12.172Z,48.95
2018-07-23T21:00:14.653Z,49.60
2018-07-23T21:01:17.109Z,49.11
2018-07-23T21:02:20.315Z,49.04
2018-07-23T21:03:23.239Z,49.39
2018-07-23T21:04:27.665Z,48.68
2018-07-23T21:05:30.479Z,48.95
2018-07-23T21:06:34.289Z,48.53
2018-07-23T21:07:37.172Z,49.03
2018-07-23T21:08:39.679Z,48.73
2018-07-23T21:09:43.002Z,48.70
